Time;durP1;ratioP1;P1;durP2;ratioP2;P2;SDS_P1;SDS_P2;PMS_P1;PMS_P2;Temp;Humidity;BMP_temperature;BMP_pressure;BME280_temperature;BME280_humidity;BME280_pressure;Samples;Min_cycle;Max_cycle;Signal;HPM_P1;HPM_P2
2023/02/16 00:01:34;;;;;;;30.23;17.70;;;3.10;99.90;;;;;;5036408;28;20418;-69
2023/02/16 00:04:00;;;;;;;28.10;20.20;;;3.10;99.90;;;;;;5036594;28;20413;-65
2023/02/16 00:06:27;;;;;;;35.80;19.30;;;3.10;99.90;;;;;;5039162;28;20494;-69
2023/02/16 00:08:55;;;;;;;31.97;18.57;;;3.10;99.90;;;;;;5024902;28;20411;-67
2023/02/16 00:14:10;;;;;;;31.30;17.80;;;3.00;99.90;;;;;;5030073;28;20400;-67
2023/02/16 00:16:36;;;;;;;33.57;19.67;;;3.00;99.90;;;;;;5033008;28;20434;-67
2023/02/16 00:19:14;;;;;;;29.23;19.20;;;2.90;99.90;;;;;;5019033;28;20413;-67
2023/02/16 00:21:40;;;;;;;31.50;18.17;;;2.90;99.90;;;;;;5024257;28;20425;-68
2023/02/16 00:24:05;;;;;;;33.87;22.10;;;2.90;99.90;;;;;;5024021;28;20478;-67
2023/02/16 00:26:33;;;;;;;30.40;21.87;;;2.90;99.90;;;;;;5033923;28;20200;-67
2023/02/16 00:28:59;;;;;;;34.10;21.90;;;2.90;99.90;;;;;;5033581;28;20174;-67
2023/02/16 00:31:30;;;;;;;32.47;20.77;;;2.90;99.90;;;;;;5037483;28;20452;-67
2023/02/16 00:33:57;;;;;;;33.00;18.80;;;2.90;99.90;;;;;;5029087;28;20928;-66
2023/02/16 00:36:23;;;;;;;38.33;20.10;;;2.90;99.90;;;;;;5034459;28;20434;-67
2023/02/16 00:38:49;;;;;;;30.50;20.07;;;2.80;99.90;;;;;;5042950;28;20773;-67
2023/02/16 00:44:02;;;;;;;30.90;20.50;;;2.90;99.90;;;;;;5038240;28;20265;-66
2023/02/16 00:46:28;;;;;;;36.27;20.40;;;2.90;99.90;;;;;;5035796;28;20426;-67
2023/02/16 00:48:54;;;;;;;37.13;19.90;;;2.80;99.90;;;;;;5041392;28;20414;-65
2023/02/16 00:51:19;;;;;;;35.37;20.57;;;2.80;99.90;;;;;;5043918;28;20191;-66
2023/02/16 00:53:45;;;;;;;26.73;17.57;;;2.90;99.90;;;;;;5030793;28;20642;-67
2023/02/16 00:56:16;;;;;;;26.60;17.27;;;2.90;99.90;;;;;;5032711;28;20701;-66
2023/02/16 00:58:42;;;;;;;36.70;17.90;;;2.80;99.90;;;;;;5048455;22;20311;-68
2023/02/16 01:01:13;;;;;;;32.10;16.30;;;2.80;99.90;;;;;;5015066;28;20415;-68
2023/02/16 01:03:39;;;;;;;32.87;15.87;;;2.80;99.90;;;;;;5026764;28;20486;-69
2023/02/16 01:11:33;;;;;;;30.33;18.60;;;2.80;99.90;;;;;;5014962;28;20481;-69
2023/02/16 01:13:59;;;;;;;27.83;16.90;;;2.80;99.90;;;;;;5026359;28;20404;-69
2023/02/16 01:16:45;;;;;;;24.73;17.47;;;2.80;99.90;;;;;;5026102;28;20176;-69
2023/02/16 01:19:12;;;;;;;30.93;18.60;;;2.70;99.90;;;;;;5011263;28;20554;-69
2023/02/16 01:21:38;;;;;;;29.40;18.70;;;2.70;99.90;;;;;;5026953;28;20407;-68
2023/02/16 01:24:03;;;;;;;25.97;17.87;;;2.60;99.90;;;;;;5020732;28;20429;-69
2023/02/16 01:26:33;;;;;;;26.93;18.27;;;2.60;99.90;;;;;;5026808;28;20411;-68
2023/02/16 01:28:59;;;;;;;28.53;17.03;;;2.70;99.90;;;;;;5023079;28;20282;-68
2023/02/16 01:31:25;;;;;;;27.17;17.93;;;2.70;99.90;;;;;;5010440;28;20996;-69
2023/02/16 01:33:50;;;;;;;34.10;17.70;;;2.60;99.90;;;;;;5025636;28;20418;-69
2023/02/16 01:36:35;;;;;;;28.70;19.87;;;2.70;99.90;;;;;;5023674;28;20225;-67
2023/02/16 01:39:01;;;;;;;29.00;18.30;;;2.70;99.90;;;;;;5018293;28;20184;-68
2023/02/16 01:42:01;;;;;;;33.43;19.73;;;2.70;99.90;;;;;;5027515;28;20904;-68
2023/02/16 01:44:35;;;;;;;23.90;17.77;;;2.70;99.90;;;;;;5019152;28;20407;-69
2023/02/16 01:47:09;;;;;;;30.13;18.70;;;2.70;99.90;;;;;;5021057;28;20893;-69
2023/02/16 01:49:35;;;;;;;27.43;15.87;;;2.70;99.90;;;;;;5027804;28;20401;-68
2023/02/16 01:52:29;;;;;;;25.73;17.27;;;2.70;99.90;;;;;;5022349;28;20987;-69
2023/02/16 01:54:57;;;;;;;25.87;17.17;;;2.70;99.90;;;;;;5016333;28;20219;-67
2023/02/16 01:57:45;;;;;;;28.97;18.67;;;2.70;99.90;;;;;;5012420;28;20478;-68
2023/02/16 02:00:15;;;;;;;31.80;17.77;;;2.70;99.90;;;;;;5018692;28;20485;-68
2023/02/16 02:02:53;;;;;;;30.47;18.30;;;2.60;99.90;;;;;;5019079;28;20964;-69
2023/02/16 02:05:34;;;;;;;27.30;18.13;;;2.70;99.90;;;;;;5024045;28;20424;-69
2023/02/16 02:08:24;;;;;;;36.07;17.93;;;2.70;99.90;;;;;;5015094;28;20438;-68
2023/02/16 02:11:25;;;;;;;31.17;19.00;;;2.70;99.90;;;;;;5016279;28;20410;-68
2023/02/16 02:14:01;;;;;;;27.77;18.07;;;2.70;99.90;;;;;;5018968;28;20446;-70
2023/02/16 02:16:27;;;;;;;37.70;19.10;;;2.60;99.90;;;;;;5013821;28;20494;-68
2023/02/16 02:18:53;;;;;;;28.13;17.50;;;2.60;99.90;;;;;;5016525;28;20525;-68
2023/02/16 02:24:25;;;;;;;33.83;21.30;;;2.70;99.90;;;;;;5019252;28;20411;-67
2023/02/16 02:27:14;;;;;;;27.23;17.77;;;2.70;99.90;;;;;;5017965;28;20411;-69
2023/02/16 02:30:15;;;;;;;31.83;18.23;;;2.60;99.90;;;;;;5024094;28;20411;-69
2023/02/16 02:32:59;;;;;;;30.00;17.60;;;2.70;99.90;;;;;;5005245;28;20485;-68
2023/02/16 02:35:34;;;;;;;24.60;14.83;;;2.60;99.90;;;;;;5016382;28;20457;-68
2023/02/16 02:38:39;;;;;;;28.60;19.00;;;2.60;99.90;;;;;;5019270;28;20465;-68
2023/02/16 02:42:02;;;;;;;25.57;16.23;;;2.50;99.90;;;;;;4968038;28;20433;-68
2023/02/16 02:44:20;;;;;;;26.23;16.07;;;2.50;99.90;;;;;;5016597;28;20753;-68
2023/02/16 02:46:46;;;;;;;30.17;19.00;;;2.40;99.90;;;;;;5026269;28;20411;-69
2023/02/16 02:49:11;;;;;;;26.83;16.90;;;2.50;99.90;;;;;;5021938;28;20461;-68
2023/02/16 02:51:39;;;;;;;31.13;18.90;;;2.50;99.90;;;;;;5017732;28;20204;-68
2023/02/16 03:03:31;;;;;;;31.23;19.23;;;2.50;99.90;;;;;;5026306;28;20829;-68
2023/02/16 03:06:09;;;;;;;28.60;18.50;;;2.50;99.90;;;;;;5013462;28;20410;-68
2023/02/16 03:08:39;;;;;;;27.93;16.47;;;2.50;99.90;;;;;;5023992;28;20480;-68
2023/02/16 03:14:18;;;;;;;28.80;18.20;;;2.40;99.90;;;;;;5032440;28;20974;-68
2023/02/16 03:30:34;;;;;;;29.50;19.57;;;2.40;99.90;;;;;;5018455;28;20474;-70
2023/02/16 03:33:00;;;;;;;36.03;18.57;;;2.50;99.90;;;;;;5016367;28;20862;-67
2023/02/16 03:35:25;;;;;;;34.57;18.87;;;2.50;99.90;;;;;;5030774;28;20229;-68
2023/02/16 03:37:51;;;;;;;25.97;18.90;;;2.50;99.90;;;;;;5011255;28;20205;-68
2023/02/16 03:40:31;;;;;;;24.67;18.00;;;2.50;99.90;;;;;;5023737;28;20539;-69
2023/02/16 03:43:00;;;;;;;28.57;19.00;;;2.40;99.90;;;;;;5014554;28;20211;-69
2023/02/16 03:45:27;;;;;;;29.30;18.23;;;2.40;99.90;;;;;;5024990;28;20777;-69
2023/02/16 03:47:53;;;;;;;27.60;16.73;;;2.40;99.90;;;;;;5026094;28;20437;-68
2023/02/16 03:50:20;;;;;;;24.67;18.53;;;2.50;99.90;;;;;;5027401;28;20831;-68
2023/02/16 03:52:45;;;;;;;25.13;16.63;;;2.40;99.90;;;;;;5031544;28;20600;-68
2023/02/16 03:55:11;;;;;;;27.60;17.17;;;2.40;99.90;;;;;;5025792;28;20458;-68
2023/02/16 03:57:36;;;;;;;26.10;17.67;;;2.40;99.90;;;;;;5028625;28;20257;-68
2023/02/16 04:00:03;;;;;;;29.93;16.93;;;2.40;99.90;;;;;;5012801;28;20179;-68
2023/02/16 04:02:28;;;;;;;26.03;15.80;;;2.40;99.90;;;;;;5023064;28;20283;-68
2023/02/16 04:04:54;;;;;;;23.40;19.23;;;2.40;99.90;;;;;;5024799;28;20423;-69
2023/02/16 04:07:20;;;;;;;27.87;17.40;;;2.40;99.90;;;;;;5022214;28;20797;-69
2023/02/16 04:09:45;;;;;;;24.67;16.60;;;2.40;99.90;;;;;;5020490;28;20176;-68
2023/02/16 04:14:56;;;;;;;28.50;16.47;;;2.30;99.90;;;;;;5019873;28;20242;-68
2023/02/16 04:17:23;;;;;;;27.67;16.40;;;2.40;99.90;;;;;;5021232;28;20436;-68
2023/02/16 04:19:48;;;;;;;26.53;17.87;;;2.40;99.90;;;;;;5020804;28;20442;-68
2023/02/16 04:22:14;;;;;;;27.23;16.13;;;2.40;99.90;;;;;;5020399;28;20410;-67
2023/02/16 04:24:39;;;;;;;24.67;16.30;;;2.30;99.90;;;;;;5000683;28;20208;-68
2023/02/16 04:27:05;;;;;;;31.93;16.50;;;2.20;99.90;;;;;;5025098;28;20207;-68
2023/02/16 04:29:30;;;;;;;25.60;16.43;;;2.30;99.90;;;;;;5029417;28;20563;-68
2023/02/16 04:31:56;;;;;;;25.40;16.43;;;2.30;99.90;;;;;;5015490;28;20275;-67
2023/02/16 04:34:22;;;;;;;30.47;17.50;;;2.20;99.90;;;;;;5021363;28;20207;-68
2023/02/16 04:36:47;;;;;;;21.30;16.40;;;2.30;99.90;;;;;;5028229;28;20187;-68
2023/02/16 04:39:13;;;;;;;27.00;18.00;;;2.30;99.90;;;;;;5033445;28;20207;-68
2023/02/16 04:41:38;;;;;;;25.80;16.60;;;2.20;99.90;;;;;;5022534;28;20192;-69
2023/02/16 04:44:04;;;;;;;21.77;16.07;;;2.20;99.90;;;;;;5011890;28;20271;-68
2023/02/16 04:46:30;;;;;;;23.03;16.07;;;2.10;99.90;;;;;;5020285;28;20188;-69
2023/02/16 04:48:56;;;;;;;25.67;16.17;;;2.10;99.90;;;;;;5025142;28;20277;-69
2023/02/16 04:51:22;;;;;;;25.70;15.97;;;2.20;99.90;;;;;;5029575;28;20501;-69
2023/02/16 04:53:47;;;;;;;26.83;15.60;;;2.10;99.90;;;;;;5031901;28;20418;-69
2023/02/16 04:56:13;;;;;;;26.40;17.20;;;2.10;99.90;;;;;;5021946;28;20183;-69
2023/02/16 04:58:39;;;;;;;21.53;14.67;;;2.10;99.90;;;;;;5014687;28;20239;-68
2023/02/16 05:01:05;;;;;;;22.53;15.47;;;2.10;99.90;;;;;;5018385;28;20255;-68
2023/02/16 05:03:31;;;;;;;24.80;15.40;;;2.10;99.90;;;;;;5031853;28;20504;-68
2023/02/16 05:05:56;;;;;;;21.57;14.27;;;2.00;99.90;;;;;;5026977;28;20242;-68
2023/02/16 05:08:22;;;;;;;20.70;14.67;;;2.00;99.90;;;;;;5026947;28;20431;-68
2023/02/16 05:14:40;;;;;;;22.27;14.37;;;2.00;99.90;;;;;;5033325;28;20185;-69
2023/02/16 05:16:20;;;;;;;19.53;14.90;;;2.00;99.90;;;;;;5033115;28;20417;-68
2023/02/16 05:18:45;;;;;;;31.47;15.47;;;2.10;99.90;;;;;;5031804;28;20430;-69
2023/02/16 05:21:29;;;;;;;25.17;15.07;;;2.00;99.90;;;;;;5026558;28;20552;-68
2023/02/16 05:23:55;;;;;;;27.37;16.63;;;2.00;99.90;;;;;;5015809;28;20225;-68
2023/02/16 05:26:20;;;;;;;24.03;14.87;;;2.00;99.90;;;;;;5021443;28;20411;-68
2023/02/16 05:28:46;;;;;;;28.33;17.20;;;1.90;99.90;;;;;;5014860;28;20996;-68
2023/02/16 05:31:12;;;;;;;22.83;15.77;;;1.90;99.90;;;;;;5018343;28;20180;-69
2023/02/16 05:33:37;;;;;;;26.67;16.80;;;2.00;99.90;;;;;;5016058;28;20247;-68
2023/02/16 05:36:03;;;;;;;23.57;15.80;;;2.00;99.90;;;;;;5018965;28;20630;-68
2023/02/16 05:38:28;;;;;;;21.77;13.40;;;1.90;99.90;;;;;;5032101;28;20285;-68
2023/02/16 05:40:54;;;;;;;25.80;15.10;;;1.90;99.90;;;;;;5025584;28;20168;-68
2023/02/16 05:43:19;;;;;;;26.10;15.47;;;2.00;99.90;;;;;;5023769;28;20207;-68
2023/02/16 05:45:45;;;;;;;22.17;14.30;;;2.00;99.90;;;;;;5033167;28;20164;-70
2023/02/16 05:48:10;;;;;;;25.50;14.73;;;2.00;99.90;;;;;;5023114;28;20612;-69
2023/02/16 05:50:36;;;;;;;28.27;15.57;;;2.00;99.90;;;;;;5024696;28;20283;-69
2023/02/16 05:53:02;;;;;;;21.43;14.40;;;2.00;99.90;;;;;;5023644;28;20663;-68
2023/02/16 05:55:27;;;;;;;28.07;15.30;;;1.90;99.90;;;;;;5025746;28;20183;-67
2023/02/16 05:57:53;;;;;;;27.23;15.33;;;1.90;99.90;;;;;;5014393;28;20212;-70
2023/02/16 06:00:19;;;;;;;18.90;15.07;;;1.90;99.90;;;;;;5025051;28;20176;-68
2023/02/16 06:02:44;;;;;;;19.90;13.80;;;1.90;99.90;;;;;;5024002;28;20553;-68
2023/02/16 06:05:10;;;;;;;24.50;14.40;;;1.90;99.90;;;;;;5020145;28;20171;-68
2023/02/16 06:07:35;;;;;;;24.60;15.17;;;1.90;99.90;;;;;;5030035;28;20212;-69
2023/02/16 06:10:02;;;;;;;25.90;14.93;;;1.90;99.90;;;;;;5021920;28;20674;-69
2023/02/16 06:12:27;;;;;;;22.60;13.80;;;1.80;99.90;;;;;;5030353;28;20275;-68
2023/02/16 06:14:54;;;;;;;17.10;14.10;;;1.80;99.90;;;;;;5009716;28;20421;-70
2023/02/16 06:17:20;;;;;;;24.07;13.97;;;1.90;99.90;;;;;;5021625;28;20196;-68
2023/02/16 06:19:45;;;;;;;18.07;13.60;;;1.90;99.90;;;;;;5022812;28;20507;-69
2023/02/16 06:22:11;;;;;;;21.10;13.73;;;1.80;99.90;;;;;;5028089;28;20253;-69
2023/02/16 06:24:37;;;;;;;27.20;15.67;;;1.80;99.90;;;;;;5024769;28;20179;-69
2023/02/16 06:27:03;;;;;;;24.90;16.63;;;1.80;99.90;;;;;;5020073;28;20192;-69
2023/02/16 06:29:29;;;;;;;24.70;14.57;;;1.80;99.90;;;;;;5027860;28;20180;-68
2023/02/16 06:31:54;;;;;;;26.80;14.40;;;1.90;99.90;;;;;;5024174;28;20904;-70
2023/02/16 06:34:20;;;;;;;25.00;14.13;;;1.80;99.90;;;;;;5026255;28;20892;-68
2023/02/16 06:36:46;;;;;;;20.30;13.60;;;1.80;99.90;;;;;;5024180;28;20168;-68
2023/02/16 06:39:11;;;;;;;30.60;15.70;;;1.80;99.90;;;;;;5031461;28;20171;-69
2023/02/16 06:41:39;;;;;;;19.13;14.57;;;1.80;99.90;;;;;;5024784;28;20551;-69
2023/02/16 06:44:15;;;;;;;22.30;14.67;;;1.90;99.90;;;;;;5020311;28;20172;-70
2023/02/16 06:46:42;;;;;;;20.33;12.10;;;2.00;99.90;;;;;;5013842;28;20902;-68
2023/02/16 06:49:11;;;;;;;19.73;14.10;;;2.00;99.90;;;;;;5026740;28;20864;-69
2023/02/16 06:51:36;;;;;;;23.10;14.60;;;2.00;99.90;;;;;;5022784;28;20454;-70
2023/02/16 06:54:02;;;;;;;20.03;12.53;;;2.10;99.90;;;;;;5019913;28;20917;-69
2023/02/16 06:56:28;;;;;;;23.27;16.20;;;2.10;99.90;;;;;;5018989;28;20183;-70
2023/02/16 06:58:53;;;;;;;28.37;16.47;;;2.20;99.90;;;;;;5053004;22;20219;-68
2023/02/16 07:01:21;;;;;;;29.30;14.27;;;2.20;99.90;;;;;;5031183;28;20250;-68
2023/02/16 07:03:49;;;;;;;26.00;15.20;;;2.30;99.90;;;;;;5039520;28;20182;-68
2023/02/16 07:06:15;;;;;;;24.00;17.10;;;2.40;99.90;;;;;;5039076;28;20414;-68
2023/02/16 07:08:41;;;;;;;24.50;15.83;;;2.50;99.90;;;;;;5037194;28;20460;-66
2023/02/16 07:11:06;;;;;;;24.53;15.37;;;2.50;99.90;;;;;;5039188;28;20424;-67
2023/02/16 07:13:35;;;;;;;26.80;15.90;;;2.60;99.90;;;;;;5040632;28;20203;-67
2023/02/16 07:16:01;;;;;;;29.60;14.63;;;2.70;99.90;;;;;;5042279;28;20160;-67
2023/02/16 07:18:27;;;;;;;20.43;13.83;;;2.80;99.90;;;;;;5041750;28;20434;-67
2023/02/16 07:20:52;;;;;;;25.07;14.33;;;2.90;99.90;;;;;;5027567;28;20820;-67
2023/02/16 07:23:18;;;;;;;20.50;13.10;;;3.00;99.90;;;;;;5033228;28;20266;-67
2023/02/16 07:25:43;;;;;;;23.63;15.20;;;3.00;99.90;;;;;;5039054;28;20226;-67
2023/02/16 07:28:09;;;;;;;21.07;14.17;;;3.10;99.90;;;;;;5042096;28;20195;-66
2023/02/16 07:30:35;;;;;;;22.13;12.40;;;3.20;99.90;;;;;;5032623;28;20234;-67
2023/02/16 07:33:00;;;;;;;20.63;15.37;;;3.40;99.90;;;;;;5041582;28;20199;-68
2023/02/16 07:35:26;;;;;;;26.07;12.80;;;3.50;99.90;;;;;;5033509;28;20310;-66
2023/02/16 07:37:52;;;;;;;15.30;13.13;;;3.50;99.90;;;;;;5038601;28;20463;-67
2023/02/16 07:40:17;;;;;;;22.17;14.37;;;3.70;99.90;;;;;;5037905;28;20211;-68
2023/02/16 07:42:43;;;;;;;23.50;15.00;;;3.80;99.90;;;;;;5038008;28;20253;-67
2023/02/16 07:45:09;;;;;;;21.80;12.40;;;3.90;99.90;;;;;;5037969;28;20563;-67
2023/02/16 07:47:34;;;;;;;19.63;12.67;;;4.10;99.90;;;;;;5032131;28;20190;-67
2023/02/16 07:50:00;;;;;;;18.23;12.10;;;4.20;99.90;;;;;;5039000;28;20193;-66
2023/02/16 07:52:29;;;;;;;20.83;12.17;;;4.30;99.90;;;;;;5041358;28;20202;-68
2023/02/16 07:54:58;;;;;;;14.83;12.50;;;4.50;99.90;;;;;;5029961;28;20192;-67
2023/02/16 07:57:25;;;;;;;20.37;13.00;;;4.50;99.90;;;;;;5025675;28;20464;-67
2023/02/16 07:59:51;;;;;;;17.60;12.77;;;4.70;99.90;;;;;;5039008;28;20445;-67
2023/02/16 08:02:18;;;;;;;20.37;11.77;;;4.80;99.90;;;;;;5034571;28;20518;-67
2023/02/16 08:04:44;;;;;;;22.50;13.70;;;5.00;99.90;;;;;;5031004;28;20175;-68
2023/02/16 08:07:14;;;;;;;16.90;11.67;;;5.00;99.90;;;;;;5040014;28;20417;-67
2023/02/16 08:09:40;;;;;;;17.80;12.50;;;5.10;99.90;;;;;;5013786;28;20485;-69
2023/02/16 08:12:14;;;;;;;15.20;11.80;;;5.30;99.90;;;;;;5043531;28;20493;-67
2023/02/16 08:14:40;;;;;;;29.17;14.03;;;5.80;99.90;;;;;;5043432;28;20192;-67
2023/02/16 08:17:06;;;;;;;18.27;11.63;;;5.70;99.90;;;;;;5045262;28;20486;-68
2023/02/16 08:19:32;;;;;;;17.97;11.93;;;5.50;99.90;;;;;;5044665;28;20285;-68
2023/02/16 08:21:59;;;;;;;18.73;14.30;;;5.60;99.90;;;;;;5042251;28;20426;-68
2023/02/16 08:24:25;;;;;;;16.17;11.97;;;5.60;99.90;;;;;;5047382;28;20507;-67
2023/02/16 08:26:52;;;;;;;16.93;11.60;;;5.80;99.90;;;;;;5034791;28;20511;-67
2023/02/16 08:29:19;;;;;;;21.10;12.50;;;6.40;99.90;;;;;;5047197;28;20444;-66
2023/02/16 08:31:46;;;;;;;25.97;12.97;;;6.60;99.90;;;;;;5042758;28;20513;-67
2023/02/16 08:34:14;;;;;;;21.43;12.37;;;7.40;99.90;;;;;;5047248;28;20413;-67
2023/02/16 08:36:43;;;;;;;24.00;12.83;;;7.80;99.90;;;;;;5025963;28;20631;-67
2023/02/16 08:39:14;;;;;;;22.30;13.37;;;7.90;99.90;;;;;;5037492;28;20464;-66
2023/02/16 08:41:41;;;;;;;22.13;12.60;;;8.40;99.90;;;;;;5031316;28;20448;-67
2023/02/16 08:44:08;;;;;;;21.43;14.60;;;8.40;99.90;;;;;;5042631;28;20905;-67
2023/02/16 08:46:36;;;;;;;21.23;13.13;;;8.60;99.90;;;;;;5037568;28;20414;-66
2023/02/16 08:49:02;;;;;;;19.73;14.00;;;9.60;99.90;;;;;;5044030;28;20430;-67
2023/02/16 08:51:31;;;;;;;19.53;14.07;;;9.30;99.90;;;;;;5049141;28;20570;-69
2023/02/16 08:53:58;;;;;;;17.93;13.80;;;8.90;99.90;;;;;;5042094;28;20398;-67
2023/02/16 08:56:25;;;;;;;16.77;12.43;;;8.80;99.90;;;;;;5031255;28;20506;-66
2023/02/16 08:58:51;;;;;;;16.00;12.43;;;8.30;99.90;;;;;;5032932;28;20924;-68
2023/02/16 09:01:17;;;;;;;19.30;14.70;;;8.50;99.90;;;;;;5041405;28;20402;-66
2023/02/16 09:03:44;;;;;;;21.43;12.23;;;9.10;99.90;;;;;;5047859;28;20274;-66
2023/02/16 09:06:12;;;;;;;21.93;14.17;;;9.70;99.90;;;;;;5040977;28;20464;-66
2023/02/16 09:08:38;;;;;;;16.20;12.67;;;9.90;99.90;;;;;;5040831;28;20515;-66
2023/02/16 09:11:10;;;;;;;20.70;14.37;;;10.10;99.90;;;;;;5038541;28;20409;-66
2023/02/16 09:13:37;;;;;;;21.80;14.80;;;10.30;99.90;;;;;;5031857;28;20426;-66
2023/02/16 09:16:04;;;;;;;23.67;14.60;;;11.20;99.90;;;;;;5039548;28;20410;-67
2023/02/16 09:18:31;;;;;;;20.67;13.57;;;11.10;99.90;;;;;;5037194;28;20882;-67
2023/02/16 09:21:01;;;;;;;20.10;14.70;;;11.90;99.90;;;;;;5039074;28;20808;-67
2023/02/16 09:23:27;;;;;;;22.20;15.37;;;11.20;99.90;;;;;;5044065;28;20428;-67
2023/02/16 09:25:53;;;;;;;21.17;13.67;;;10.60;99.90;;;;;;5035623;28;20618;-67
2023/02/16 09:28:20;;;;;;;20.70;13.20;;;10.20;99.90;;;;;;5028877;28;20206;-66
2023/02/16 09:30:45;;;;;;;19.90;15.40;;;10.80;99.90;;;;;;5032378;28;20176;-67
2023/02/16 09:33:11;;;;;;;20.23;13.90;;;10.90;99.90;;;;;;5036544;28;20458;-68
2023/02/16 09:35:40;;;;;;;18.77;12.93;;;10.70;99.90;;;;;;5040255;28;20185;-67
2023/02/16 09:38:06;;;;;;;18.60;13.40;;;10.90;99.90;;;;;;5044171;28;20209;-69
2023/02/16 09:40:32;;;;;;;21.40;14.57;;;10.40;99.90;;;;;;5037158;28;20405;-67
2023/02/16 09:43:21;;;;;;;17.30;12.87;;;11.30;99.90;;;;;;5043677;28;20888;-67
2023/02/16 09:45:49;;;;;;;16.77;13.40;;;12.20;99.90;;;;;;5027869;28;20173;-66
2023/02/16 09:48:36;;;;;;;20.87;13.93;;;11.40;99.90;;;;;;5031625;28;20786;-66
2023/02/16 09:51:04;;;;;;;22.03;14.80;;;10.90;99.90;;;;;;5043657;28;20394;-66
2023/02/16 09:53:42;;;;;;;20.67;14.57;;;10.60;99.90;;;;;;5043174;28;20463;-67
2023/02/16 09:56:21;;;;;;;19.50;13.50;;;10.60;99.90;;;;;;5029224;28;20725;-68
2023/02/16 09:59:00;;;;;;;17.40;13.30;;;10.40;99.90;;;;;;5040172;28;20457;-66
2023/02/16 10:01:44;;;;;;;19.40;15.20;;;9.60;99.90;;;;;;5036770;28;20401;-66
2023/02/16 10:04:47;;;;;;;21.93;15.40;;;9.60;99.90;;;;;;5035626;28;20406;-66
2023/02/16 10:07:38;;;;;;;23.53;15.43;;;9.40;99.90;;;;;;5028514;28;20497;-69
2023/02/16 10:10:06;;;;;;;25.00;15.07;;;9.10;99.90;;;;;;5038165;28;20406;-69
2023/02/16 10:12:41;;;;;;;26.20;15.97;;;9.00;99.90;;;;;;5040062;28;20959;-69
2023/02/16 10:15:21;;;;;;;29.47;16.47;;;9.00;99.90;;;;;;5030040;28;20846;-68
2023/02/16 10:17:54;;;;;;;22.77;14.47;;;9.60;99.90;;;;;;5023354;28;20448;-67
2023/02/16 10:20:33;;;;;;;21.77;15.47;;;9.50;99.90;;;;;;5040929;28;20444;-67
2023/02/16 10:23:17;;;;;;;26.33;16.90;;;9.80;99.90;;;;;;5032327;28;20691;-68
2023/02/16 10:25:53;;;;;;;27.30;15.97;;;9.70;99.90;;;;;;5031638;28;20414;-68
2023/02/16 10:28:21;;;;;;;26.23;16.80;;;9.60;99.90;;;;;;5042332;28;20433;-67
2023/02/16 10:31:04;;;;;;;25.60;16.00;;;9.80;99.90;;;;;;5039287;28;20435;-69
2023/02/16 10:33:39;;;;;;;24.73;15.20;;;9.70;99.90;;;;;;5037606;28;20453;-67
2023/02/16 10:36:23;;;;;;;21.17;15.37;;;9.20;99.90;;;;;;5029735;28;20532;-67
2023/02/16 10:38:53;;;;;;;27.70;17.27;;;8.90;99.90;;;;;;5041604;28;20943;-68
2023/02/16 10:41:31;;;;;;;25.90;16.27;;;8.90;99.90;;;;;;5029103;28;20496;-67
2023/02/16 10:44:14;;;;;;;25.90;17.53;;;9.30;99.90;;;;;;5028177;28;20991;-67
2023/02/16 10:46:45;;;;;;;25.57;14.90;;;9.30;99.90;;;;;;5045513;28;20412;-68
2023/02/16 10:49:14;;;;;;;25.30;16.33;;;9.30;99.90;;;;;;5028078;28;20448;-69
2023/02/16 10:51:42;;;;;;;26.13;16.73;;;9.30;99.90;;;;;;5044670;28;20444;-67
2023/02/16 10:54:17;;;;;;;22.13;14.60;;;9.50;99.90;;;;;;5036210;28;20869;-67
2023/02/16 10:56:58;;;;;;;26.07;16.53;;;9.70;99.90;;;;;;5040092;28;20990;-68
2023/02/16 10:59:44;;;;;;;20.70;15.53;;;9.90;99.90;;;;;;5036166;28;20817;-67
2023/02/16 11:02:26;;;;;;;23.53;15.17;;;10.10;99.90;;;;;;5032018;28;20441;-69
2023/02/16 11:04:54;;;;;;;27.27;15.13;;;10.00;99.90;;;;;;5018431;28;20413;-68
2023/02/16 11:07:29;;;;;;;33.93;18.40;;;9.90;99.90;;;;;;5040836;28;20417;-69
2023/02/16 11:09:57;;;;;;;24.70;15.77;;;9.80;99.90;;;;;;5038430;28;20426;-68
2023/02/16 11:12:35;;;;;;;25.13;15.87;;;10.00;99.90;;;;;;5037479;28;20462;-68
2023/02/16 11:15:12;;;;;;;27.03;14.83;;;10.00;99.90;;;;;;5028287;28;20415;-68
2023/02/16 11:17:58;;;;;;;25.47;15.47;;;10.00;99.90;;;;;;5044860;28;20786;-68
2023/02/16 11:20:30;;;;;;;25.37;14.97;;;9.90;99.90;;;;;;5028117;28;20438;-68
2023/02/16 11:23:11;;;;;;;23.90;16.23;;;9.90;99.90;;;;;;5031812;28;20425;-68
2023/02/16 11:25:37;;;;;;;23.93;16.20;;;9.70;99.90;;;;;;5036896;28;20412;-68
2023/02/16 11:28:04;;;;;;;27.30;16.27;;;9.90;99.90;;;;;;5013213;28;20422;-68
2023/02/16 11:30:35;;;;;;;25.67;16.33;;;10.10;99.90;;;;;;5038652;28;20183;-67
2023/02/16 11:33:21;;;;;;;19.90;15.00;;;10.30;99.90;;;;;;5041539;28;20457;-67
2023/02/16 11:35:46;;;;;;;23.33;16.20;;;9.90;99.90;;;;;;5037464;28;20908;-67
2023/02/16 11:38:34;;;;;;;28.10;18.47;;;9.90;99.90;;;;;;5041488;28;20445;-67
2023/02/16 11:41:03;;;;;;;29.67;16.80;;;10.20;99.90;;;;;;5035402;28;20278;-67
2023/02/16 11:43:35;;;;;;;27.63;16.70;;;10.10;99.90;;;;;;5033217;28;20413;-67
2023/02/16 11:46:00;;;;;;;28.63;17.23;;;10.00;99.90;;;;;;5028838;28;20402;-68
2023/02/16 11:48:30;;;;;;;27.60;16.60;;;10.10;99.90;;;;;;5038613;28;20939;-68
2023/02/16 11:51:02;;;;;;;24.90;15.53;;;10.10;99.90;;;;;;5035991;28;20171;-68
2023/02/16 11:53:31;;;;;;;38.50;17.20;;;10.20;99.90;;;;;;5042765;28;20476;-68
2023/02/16 11:56:17;;;;;;;26.63;16.53;;;10.30;99.90;;;;;;5036854;28;20578;-67
2023/02/16 11:58:43;;;;;;;28.73;16.60;;;10.40;99.90;;;;;;5043552;28;20449;-67
2023/02/16 12:01:33;;;;;;;22.40;16.00;;;10.40;99.90;;;;;;5037794;28;20890;-67
2023/02/16 12:04:06;;;;;;;22.20;15.40;;;10.40;99.90;;;;;;5038684;28;20876;-68
2023/02/16 12:06:38;;;;;;;26.03;17.07;;;10.50;99.90;;;;;;5038454;28;20422;-68
2023/02/16 12:09:15;;;;;;;24.53;16.63;;;10.50;99.90;;;;;;5041187;28;20430;-68
2023/02/16 12:12:02;;;;;;;25.03;16.10;;;10.60;99.90;;;;;;5030974;28;20451;-68
2023/02/16 12:15:23;;;;;;;23.57;16.43;;;10.60;99.90;;;;;;5032656;28;20410;-68
2023/02/16 12:18:15;;;;;;;23.67;15.27;;;10.60;99.90;;;;;;4967551;28;20420;-68
2023/02/16 12:21:05;;;;;;;32.87;16.00;;;10.90;99.90;;;;;;5036232;28;20407;-68
2023/02/16 12:23:41;;;;;;;19.13;14.00;;;11.00;99.90;;;;;;5023757;28;20433;-68
2023/02/16 12:26:35;;;;;;;24.07;15.40;;;10.90;99.90;;;;;;5038186;28;20402;-69
2023/02/16 12:29:10;;;;;;;25.57;14.70;;;10.90;99.90;;;;;;5033294;28;20447;-66
2023/02/16 12:31:54;;;;;;;26.73;15.03;;;11.10;99.90;;;;;;5039680;28;20456;-67
2023/02/16 12:34:41;;;;;;;23.87;14.73;;;11.10;99.90;;;;;;5032660;28;20406;-66
2023/02/16 12:37:22;;;;;;;20.67;14.00;;;11.40;99.90;;;;;;5034473;28;20410;-67
2023/02/16 12:40:03;;;;;;;24.53;15.73;;;11.60;99.90;;;;;;5029238;28;20484;-67
2023/02/16 12:42:50;;;;;;;22.30;15.43;;;11.30;99.90;;;;;;5037704;28;20406;-67
2023/02/16 12:45:26;;;;;;;24.07;19.03;;;11.20;99.90;;;;;;5040806;28;20405;-67
2023/02/16 12:48:04;;;;;;;24.03;15.43;;;11.20;99.90;;;;;;5037018;28;20532;-67
2023/02/16 12:50:32;;;;;;;24.03;15.30;;;11.30;99.90;;;;;;5032118;28;20879;-68
2023/02/16 12:53:32;;;;;;;24.87;14.93;;;11.40;99.90;;;;;;5040788;28;20473;-70
2023/02/16 12:56:10;;;;;;;26.60;15.70;;;11.40;99.90;;;;;;5006790;28;20431;-67
2023/02/16 12:58:43;;;;;;;20.80;13.33;;;11.40;99.90;;;;;;5029385;28;20449;-66
2023/02/16 13:01:38;;;;;;;21.70;13.47;;;11.30;99.90;;;;;;5058087;22;20473;-68
2023/02/16 13:04:22;;;;;;;26.73;14.50;;;11.40;99.90;;;;;;5024161;28;20978;-67
2023/02/16 13:07:08;;;;;;;19.93;14.63;;;11.40;99.90;;;;;;5042818;28;20887;-68
2023/02/16 13:10:01;;;;;;;19.60;13.50;;;11.50;99.90;;;;;;5045994;28;20406;-69
2023/02/16 13:12:48;;;;;;;23.83;12.80;;;11.40;99.90;;;;;;5026109;28;20469;-68
2023/02/16 13:15:17;;;;;;;22.93;14.33;;;11.50;99.90;;;;;;5043446;28;20749;-68
2023/02/16 13:17:51;;;;;;;18.87;13.80;;;11.50;99.90;;;;;;5050193;28;20413;-68
2023/02/16 13:20:20;;;;;;;25.67;14.20;;;11.60;99.90;;;;;;5040651;28;20923;-68
2023/02/16 13:22:51;;;;;;;24.13;14.93;;;11.70;99.90;;;;;;5030749;28;20425;-68
2023/02/16 13:25:36;;;;;;;20.93;13.73;;;11.70;99.90;;;;;;5038822;28;20417;-68
2023/02/16 13:28:01;;;;;;;21.50;12.77;;;11.80;99.90;;;;;;5023072;28;20802;-68
2023/02/16 13:30:38;;;;;;;23.67;14.60;;;12.10;99.90;;;;;;5044482;28;20421;-68
2023/02/16 13:33:08;;;;;;;24.50;13.77;;;12.10;99.90;;;;;;5041452;28;20259;-67
2023/02/16 13:35:56;;;;;;;20.20;14.53;;;12.20;99.90;;;;;;5037295;28;20817;-68
2023/02/16 13:38:56;;;;;;;21.00;14.67;;;12.10;99.90;;;;;;5045173;28;20403;-68
2023/02/16 13:41:24;;;;;;;21.60;13.03;;;11.90;99.90;;;;;;5042598;28;20521;-68
2023/02/16 13:43:59;;;;;;;20.03;14.47;;;12.00;99.90;;;;;;5046270;28;20763;-68